Krasnoural'sk, Russia
Current Conditions -  °F | °C
As of 5:30 PM on Monday 24 Nov 2014 (Local Time) from USSS Reporting Station
Blowing Snow Blowing Snow  
Wind Chill: -13°   Ceiling: 6700
Heat Index:   Visibility: 6mi
Dew Point: -6°   Wind: 20mph
Humidity: 56%   Direction: 270°W
Pressure: 30.42"   Gusts: NA
Location:  58.22°N, 60.06°E
Report Text: USSS 241230Z 27009MPS 9999 DRSN OVC067 M14/M21 Q1030 76810350TEMPO 27015MPS RMK QFE752
Loading
Personal Weather Stations






























Interactive Weather Map New forecast layout! Learn more

10-Day Weather Forecast

Advertisements
Track Severe Weather on mobile